Time;durP1;ratioP1;P1;durP2;ratioP2;P2;SDS_P1;SDS_P2;PMS_P1;PMS_P2;Temp;Humidity;BMP_temperature;BMP_pressure;BME280_temperature;BME280_humidity;BME280_pressure;Samples;Min_cycle;Max_cycle;Signal;HPM_P1;HPM_P2
2022/09/14 00:01:14;;;;;;;9.48;2.50;;;;;;;11.73;82.04;99993.31;1749174;79;21728;-87
2022/09/14 00:03:41;;;;;;;7.42;2.20;;;;;;;11.75;82.00;99988.92;1749222;79;21573;-87
2022/09/14 00:06:11;;;;;;;5.60;2.12;;;;;;;11.77;81.92;99994.68;1756164;80;21045;-87
2022/09/14 00:08:37;;;;;;;12.28;3.08;;;;;;;11.80;81.93;99988.54;1757192;80;21057;-87
2022/09/14 00:14:48;;;;;;;8.90;2.77;;;;;;;11.82;81.85;99977.16;1749380;79;22527;-87
2022/09/14 00:17:16;;;;;;;9.23;2.40;;;;;;;11.85;81.82;99978.91;1752713;80;21057;-87
2022/09/14 00:19:43;;;;;;;6.75;3.25;;;;;;;11.86;81.79;99971.44;1750893;79;21587;-87
2022/09/14 00:22:11;;;;;;;9.48;3.05;;;;;;;11.88;81.82;99968.41;1751648;80;21049;-87
2022/09/14 00:24:38;;;;;;;5.70;2.85;;;;;;;11.89;81.74;99967.52;1751432;79;21057;-87
2022/09/14 00:27:05;;;;;;;10.15;2.85;;;;;;;11.90;81.77;99966.69;1753012;79;22233;-87
2022/09/14 00:29:32;;;;;;;5.92;2.33;;;;;;;11.92;81.73;99966.67;1752386;79;21077;-87
2022/09/14 00:31:59;;;;;;;7.80;2.72;;;;;;;11.93;81.76;99967.13;1746859;80;21086;-87
2022/09/14 00:34:26;;;;;;;10.32;2.60;;;;;;;11.94;81.69;99963.20;1707170;82;21167;-87
2022/09/14 00:36:53;;;;;;;9.03;2.40;;;;;;;11.95;81.73;99963.63;1736265;81;21460;-88
2022/09/14 00:39:22;;;;;;;8.70;2.52;;;;;;;11.99;81.83;99966.75;1736257;80;22498;-87
2022/09/14 00:41:49;;;;;;;7.25;2.20;;;;;;;12.04;81.93;99965.45;1748554;80;21088;-86
2022/09/14 00:44:21;;;;;;;6.95;2.10;;;;;;;12.11;82.04;99964.63;1765920;79;21082;-87
2022/09/14 00:46:51;;;;;;;9.68;2.30;;;;;;;12.22;82.17;99963.37;1764672;79;21049;-87
2022/09/14 00:49:38;;;;;;;6.70;2.20;;;;;;;12.34;82.16;99950.67;1738581;80;21062;-87
2022/09/14 00:52:12;;;;;;;10.80;2.08;;;;;;;12.44;82.08;99953.38;1737834;80;22266;-87
2022/09/14 00:54:52;;;;;;;9.03;2.60;;;;;;;12.55;81.99;99959.99;1738240;80;21073;-87
2022/09/14 00:57:19;;;;;;;8.58;1.95;;;;;;;12.63;81.89;99955.65;1757067;80;21072;-87
2022/09/14 00:59:47;;;;;;;8.80;4.00;;;;;;;12.74;81.84;99956.98;1754190;80;21073;-87
2022/09/14 01:02:14;;;;;;;6.40;2.42;;;;;;;12.83;81.76;99950.41;1736847;80;21001;-87
2022/09/14 01:04:42;;;;;;;7.20;2.20;;;;;;;12.91;81.64;99955.71;1736457;81;21780;-88
2022/09/14 01:07:26;;;;;;;9.33;2.45;;;;;;;12.97;81.48;99954.43;1749603;80;21061;-87
2022/09/14 01:10:33;;;;;;;8.48;2.12;;;;;;;13.03;81.39;99956.20;1710683;81;21012;-87
2022/09/14 01:13:29;;;;;;;7.12;2.27;;;;;;;13.07;81.27;99942.56;1755182;78;21041;-87
2022/09/14 01:16:14;;;;;;;5.53;2.30;;;;;;;13.14;81.21;99942.58;1763795;79;21045;-87
2022/09/14 01:18:56;;;;;;;7.60;2.30;;;;;;;13.23;81.12;99941.69;1679943;82;23208;-88
2022/09/14 01:21:27;;;;;;;7.30;2.05;;;;;;;13.27;81.00;99936.87;1688740;82;21378;-87
2022/09/14 01:24:25;;;;;;;7.28;2.47;;;;;;;13.31;80.84;99932.05;1684315;82;21069;-87
2022/09/14 01:27:30;;;;;;;8.23;1.95;;;;;;;13.34;80.71;99921.91;1698343;82;21571;-87
2022/09/14 01:30:02;;;;;;;6.55;1.95;;;;;;;13.37;80.55;99918.83;1683537;82;21137;-86
2022/09/14 01:32:59;;;;;;;8.48;2.08;;;;;;;13.38;80.43;99920.61;1701211;82;22590;-88
2022/09/14 01:35:33;;;;;;;7.75;2.15;;;;;;;13.37;80.33;99917.96;1712486;82;21062;-89
2022/09/14 01:38:07;;;;;;;9.03;2.05;;;;;;;13.38;80.28;99927.63;1704606;82;21104;-88
2022/09/14 01:40:51;;;;;;;6.53;2.00;;;;;;;13.43;80.38;99916.63;1716109;80;21081;-88
2022/09/14 01:43:23;;;;;;;5.85;2.12;;;;;;;13.49;80.36;99926.33;1703244;82;21088;-88
2022/09/14 01:45:53;;;;;;;5.87;1.87;;;;;;;13.57;80.25;99915.29;1703428;82;21767;-88
2022/09/14 01:48:39;;;;;;;7.62;1.90;;;;;;;13.64;80.09;99924.11;1703730;82;21564;-89
2022/09/14 01:51:13;;;;;;;7.37;1.90;;;;;;;13.65;79.92;99922.80;1714296;82;21137;-88
2022/09/14 01:53:47;;;;;;;7.83;1.70;;;;;;;13.63;79.69;99915.73;1717835;81;21209;-88
2022/09/14 01:56:32;;;;;;;6.55;1.70;;;;;;;13.61;79.57;99909.14;1765739;79;21573;-88
2022/09/14 01:59:15;;;;;;;6.03;1.67;;;;;;;13.57;79.42;99911.33;1765479;79;21752;-88
2022/09/14 02:01:53;;;;;;;8.53;2.33;;;;;;;13.50;79.25;99908.27;1766449;79;21051;-89
2022/09/14 02:04:27;;;;;;;7.90;2.35;;;;;;;13.41;79.17;99905.17;1766272;79;21544;-89
2022/09/14 02:06:55;;;;;;;8.50;1.90;;;;;;;13.34;79.16;99910.02;1765858;79;21115;-89
2022/09/14 02:09:25;;;;;;;12.70;1.95;;;;;;;13.28;79.16;99908.67;1740131;80;21126;-89
2022/09/14 02:11:50;;;;;;;7.80;2.02;;;;;;;13.21;79.21;99907.77;1740101;80;22583;-89
2022/09/14 02:14:17;;;;;;;6.90;1.75;;;;;;;13.16;79.24;99902.95;1710034;82;21096;-89
2022/09/14 02:16:45;;;;;;;7.83;1.72;;;;;;;13.11;79.32;99897.64;1769278;79;21620;-88
2022/09/14 02:19:13;;;;;;;7.08;2.30;;;;;;;13.06;79.33;99895.42;1740020;80;21342;-88
2022/09/14 02:21:39;;;;;;;5.10;1.60;;;;;;;13.01;79.38;99900.72;1740360;80;21513;-88
2022/09/14 02:24:06;;;;;;;5.85;1.57;;;;;;;12.96;79.44;99895.86;1710297;82;21753;-88
2022/09/14 02:26:33;;;;;;;6.87;1.65;;;;;;;12.93;79.49;99903.80;1769166;79;21056;-88
2022/09/14 02:29:00;;;;;;;7.28;1.87;;;;;;;12.89;79.55;99894.08;1768664;79;21049;-88
2022/09/14 02:31:38;;;;;;;8.38;1.87;;;;;;;12.87;79.59;99897.16;1688936;81;21133;-87
2022/09/14 02:34:25;;;;;;;7.55;2.17;;;;;;;12.83;79.61;99892.75;1765169;79;21123;-88
2022/09/14 02:37:11;;;;;;;9.10;1.70;;;;;;;12.79;79.62;99887.03;1766351;79;22556;-85
2022/09/14 02:39:55;;;;;;;4.20;1.75;;;;;;;12.75;79.65;99891.87;1778392;79;21049;-87
2022/09/14 02:42:51;;;;;;;5.70;1.57;;;;;;;12.70;79.76;99887.01;1766168;79;21040;-87
2022/09/14 02:46:02;;;;;;;5.83;1.42;;;;;;;12.68;79.84;99879.52;1765775;79;21084;-87
2022/09/14 02:48:43;;;;;;;8.55;1.72;;;;;;;12.66;79.91;99879.97;1766242;79;21151;-87
2022/09/14 02:51:21;;;;;;;4.65;1.75;;;;;;;12.63;80.00;99876.86;1766026;79;22642;-87
2022/09/14 02:54:14;;;;;;;11.00;2.00;;;;;;;12.60;80.02;99873.78;1766400;79;22328;-87
2022/09/14 02:56:40;;;;;;;8.43;1.67;;;;;;;12.59;80.13;99879.95;1766424;79;21563;-87
2022/09/14 02:59:07;;;;;;;7.85;2.10;;;;;;;12.56;80.09;99878.62;1764109;80;21277;-88
2022/09/14 03:01:34;;;;;;;16.57;2.17;;;;;;;12.54;80.16;99878.18;1764242;80;22373;-87
2022/09/14 03:04:04;;;;;;;10.23;1.80;;;;;;;12.51;80.14;99876.84;1764006;79;21924;-88
2022/09/14 03:06:30;;;;;;;7.22;2.20;;;;;;;12.48;80.18;99876.81;1742657;79;21006;-87
2022/09/14 03:08:57;;;;;;;5.87;2.30;;;;;;;12.43;80.28;99876.82;1765967;79;21580;-87
2022/09/14 03:11:24;;;;;;;8.53;1.92;;;;;;;12.43;80.31;99871.54;1766009;79;21059;-87
2022/09/14 03:13:50;;;;;;;5.67;1.60;;;;;;;12.40;80.33;99872.39;1766015;79;21056;-87
2022/09/14 03:16:17;;;;;;;6.72;1.90;;;;;;;12.38;80.36;99868.86;1764055;80;21861;-87
2022/09/14 03:18:44;;;;;;;9.98;1.82;;;;;;;12.36;80.45;99873.26;1760886;80;21641;-87
2022/09/14 03:21:13;;;;;;;6.70;1.70;;;;;;;12.35;80.48;99867.97;1762295;80;21042;-87
2022/09/14 03:23:49;;;;;;;9.93;2.00;;;;;;;12.33;80.48;99869.73;1765823;80;20999;-87
2022/09/14 03:26:18;;;;;;;6.25;1.60;;;;;;;12.31;80.57;99863.56;1766640;80;21000;-87
2022/09/14 03:28:50;;;;;;;7.60;1.80;;;;;;;12.29;80.61;99858.27;1765108;80;21708;-87
2022/09/14 03:31:17;;;;;;;3.30;1.45;;;;;;;12.28;80.67;99863.58;1749883;79;21034;-87
2022/09/14 03:33:43;;;;;;;11.70;2.12;;;;;;;12.26;80.71;99856.97;1763994;79;21063;-87
2022/09/14 03:36:16;;;;;;;8.85;1.95;;;;;;;12.25;80.72;99859.14;1747042;80;21532;-87
2022/09/14 03:38:48;;;;;;;5.97;2.62;;;;;;;12.23;80.76;99857.81;1708956;82;21073;-88
2022/09/14 03:41:14;;;;;;;7.90;1.87;;;;;;;12.21;80.78;99856.93;1713025;81;22698;-86
2022/09/14 03:43:41;;;;;;;7.45;2.15;;;;;;;12.19;80.75;99860.45;1750381;79;20984;-87
2022/09/14 03:46:27;;;;;;;7.12;1.65;;;;;;;12.16;80.79;99867.92;1754374;79;21043;-88
2022/09/14 03:48:56;;;;;;;7.67;1.82;;;;;;;12.14;80.82;99855.58;1722152;81;21567;-87
2022/09/14 03:51:23;;;;;;;5.62;1.55;;;;;;;12.11;80.89;99855.14;1757842;79;21077;-84
2022/09/14 03:53:50;;;;;;;9.05;1.82;;;;;;;12.10;80.91;99861.73;1760870;79;21715;-84
2022/09/14 03:56:19;;;;;;;4.67;1.87;;;;;;;12.08;80.99;99859.08;1758054;80;21107;-84
2022/09/14 03:58:47;;;;;;;7.80;2.27;;;;;;;12.06;81.01;99863.02;1758781;79;21084;-85
2022/09/14 04:01:16;;;;;;;6.90;1.85;;;;;;;12.09;81.16;99857.31;1760418;79;21097;-85
2022/09/14 04:03:43;;;;;;;11.57;2.12;;;;;;;12.12;81.24;99850.30;1760216;79;21065;-84
2022/09/14 04:06:10;;;;;;;10.68;2.62;;;;;;;12.17;81.24;99845.05;1759885;79;22290;-86
2022/09/14 04:08:39;;;;;;;5.20;1.87;;;;;;;12.17;81.17;99849.88;1755067;80;21554;-85
2022/09/14 04:11:12;;;;;;;8.28;2.20;;;;;;;12.16;81.08;99849.88;1730120;81;21088;-84
2022/09/14 04:13:38;;;;;;;8.70;2.20;;;;;;;12.16;81.11;99858.69;1757866;80;21688;-85
2022/09/14 04:16:05;;;;;;;6.78;2.10;;;;;;;12.16;81.13;99859.11;1760542;79;21117;-83
2022/09/14 04:18:32;;;;;;;7.42;1.75;;;;;;;12.18;81.24;99860.89;1760720;79;22378;-83
2022/09/14 04:21:06;;;;;;;7.70;2.12;;;;;;;12.23;81.44;99861.77;1760288;79;21506;-83
2022/09/14 04:23:32;;;;;;;10.32;2.55;;;;;;;12.33;81.58;99867.99;1751194;79;21081;-83
2022/09/14 04:25:59;;;;;;;6.75;1.80;;;;;;;12.47;81.65;99867.16;1758736;79;21076;-83
2022/09/14 04:28:26;;;;;;;6.85;1.82;;;;;;;12.57;81.62;99865.84;1760353;79;21730;-86
2022/09/14 04:30:58;;;;;;;9.33;1.80;;;;;;;12.66;81.58;99859.72;1760302;79;22403;-83
2022/09/14 04:33:25;;;;;;;13.78;1.90;;;;;;;12.78;81.55;99866.35;1764372;79;21092;-84
2022/09/14 04:36:08;;;;;;;6.87;1.70;;;;;;;12.89;81.47;99871.63;1765780;79;21197;-84
2022/09/14 04:38:35;;;;;;;6.67;2.30;;;;;;;12.98;81.39;99873.41;1765560;79;21120;-84
2022/09/14 04:41:17;;;;;;;7.08;1.85;;;;;;;13.09;81.33;99869.47;1764668;79;21080;-85
2022/09/14 04:43:44;;;;;;;7.85;1.95;;;;;;;13.18;81.30;99872.98;1749474;81;21381;-85
2022/09/14 04:46:14;;;;;;;10.05;1.92;;;;;;;13.30;81.21;99871.23;1765597;79;21075;-85
2022/09/14 04:48:41;;;;;;;8.25;1.92;;;;;;;13.39;81.09;99872.58;1766907;79;21033;-85
2022/09/14 04:51:12;;;;;;;7.62;2.40;;;;;;;13.46;80.97;99871.70;1732721;81;21048;-86
2022/09/14 04:53:39;;;;;;;7.97;1.90;;;;;;;13.55;80.89;99878.30;1732624;81;21072;-86
2022/09/14 04:56:08;;;;;;;9.45;2.02;;;;;;;13.63;80.75;99875.64;1766712;79;22424;-85
2022/09/14 04:58:38;;;;;;;12.90;1.85;;;;;;;13.71;80.62;99875.62;1734430;81;21029;-83
2022/09/14 05:01:07;;;;;;;8.58;1.82;;;;;;;13.80;80.49;99872.97;1756942;80;21066;-84
2022/09/14 05:03:35;;;;;;;7.12;1.70;;;;;;;13.87;80.31;99867.20;1768554;79;21051;-85
2022/09/14 05:06:04;;;;;;;5.10;1.95;;;;;;;13.92;80.24;99868.95;1766802;79;21045;-84
2022/09/14 05:08:32;;;;;;;11.83;2.05;;;;;;;13.98;80.10;99876.89;1772840;79;21917;-84
2022/09/14 05:10:59;;;;;;;7.85;1.85;;;;;;;14.05;80.13;99880.38;1766112;79;21428;-83
2022/09/14 05:13:25;;;;;;;5.33;1.50;;;;;;;14.16;80.11;99884.33;1766548;79;21615;-84
2022/09/14 05:15:52;;;;;;;7.83;1.70;;;;;;;14.24;80.04;99882.52;1764107;79;21108;-85
2022/09/14 05:18:19;;;;;;;4.80;1.60;;;;;;;14.30;79.91;99886.48;1765620;79;21415;-84
2022/09/14 05:20:46;;;;;;;5.20;2.00;;;;;;;14.34;79.68;99888.65;1765133;79;21727;-84
2022/09/14 05:23:13;;;;;;;8.45;1.87;;;;;;;14.34;79.63;99879.38;1765896;79;21124;-84
2022/09/14 05:25:40;;;;;;;6.42;1.70;;;;;;;14.34;79.67;99881.61;1765924;79;21113;-84
2022/09/14 05:28:07;;;;;;;7.95;2.05;;;;;;;14.38;79.71;99880.70;1780087;79;21045;-84
2022/09/14 05:30:34;;;;;;;6.12;1.90;;;;;;;14.41;79.64;99885.55;1777906;79;21131;-84
2022/09/14 05:33:00;;;;;;;6.50;1.98;;;;;;;14.42;79.69;99883.35;1767412;78;22546;-84
2022/09/14 05:35:27;;;;;;;5.55;1.60;;;;;;;14.44;79.64;99888.19;1766140;79;21136;-84
2022/09/14 05:37:54;;;;;;;6.97;1.75;;;;;;;14.46;79.64;99886.41;1766140;79;21033;-84
2022/09/14 05:40:21;;;;;;;5.90;1.98;;;;;;;14.49;79.73;99880.66;1738756;81;21060;-84
2022/09/14 05:42:47;;;;;;;5.83;1.95;;;;;;;14.53;79.50;99887.70;1771930;79;21056;-85
2022/09/14 05:45:14;;;;;;;6.22;2.20;;;;;;;14.55;79.48;99890.34;1766353;79;21734;-84
2022/09/14 05:47:41;;;;;;;6.37;2.00;;;;;;;14.62;79.53;99880.19;1766675;79;21089;-84
2022/09/14 05:50:08;;;;;;;6.40;1.80;;;;;;;14.73;79.50;99884.08;1766098;79;21508;-84
2022/09/14 05:52:35;;;;;;;6.75;3.87;;;;;;;14.82;79.42;99882.70;1766557;79;22042;-84
2022/09/14 05:55:02;;;;;;;5.08;1.50;;;;;;;14.92;79.30;99872.50;1765288;79;21067;-84
2022/09/14 05:57:28;;;;;;;7.67;1.70;;;;;;;14.99;79.16;99877.74;1766741;79;22631;-84
2022/09/14 05:59:55;;;;;;;3.47;1.65;;;;;;;15.04;79.00;99875.95;1766771;79;21043;-84
2022/09/14 06:02:22;;;;;;;4.42;1.70;;;;;;;15.10;79.04;99879.41;1766485;79;21015;-84
2022/09/14 06:04:48;;;;;;;8.80;1.70;;;;;;;15.25;78.97;99865.16;1766504;79;21044;-84
2022/09/14 06:07:15;;;;;;;5.28;1.90;;;;;;;15.32;78.75;99854.08;1766652;79;21617;-85
2022/09/14 06:09:42;;;;;;;5.55;1.60;;;;;;;15.41;78.62;99859.30;1731132;81;22508;-84
2022/09/14 06:12:09;;;;;;;5.28;1.82;;;;;;;15.48;78.46;99862.30;1738453;81;21108;-84
2022/09/14 06:14:35;;;;;;;4.25;1.75;;;;;;;15.51;78.31;99860.95;1766357;79;21044;-84
2022/09/14 06:17:04;;;;;;;6.42;1.82;;;;;;;15.55;78.20;99865.33;1766234;79;20961;-85
2022/09/14 06:19:30;;;;;;;4.85;2.12;;;;;;;15.65;78.12;99872.75;1734335;81;21137;-84
2022/09/14 06:21:57;;;;;;;4.50;1.52;;;;;;;15.70;77.82;99869.61;1766386;79;21735;-84
2022/09/14 06:24:24;;;;;;;3.05;1.20;;;;;;;15.78;77.92;99870.89;1739028;81;21229;-85
2022/09/14 06:26:51;;;;;;;3.50;1.45;;;;;;;16.00;78.10;99874.20;1738791;81;21648;-85
2022/09/14 06:29:18;;;;;;;2.47;1.22;;;;;;;16.26;77.80;99875.68;1766264;79;20961;-85
2022/09/14 06:31:44;;;;;;;2.92;1.42;;;;;;;16.43;77.57;99874.13;1731571;81;22296;-85
2022/09/14 06:34:12;;;;;;;5.70;1.30;;;;;;;16.57;77.26;99877.47;1721199;81;22311;-85
2022/09/14 06:36:38;;;;;;;3.75;1.10;;;;;;;16.73;77.03;99879.94;1710633;82;21045;-85
2022/09/14 06:39:05;;;;;;;4.03;1.70;;;;;;;16.81;76.57;99875.38;1708812;82;21081;-85
2022/09/14 06:41:33;;;;;;;4.37;1.50;;;;;;;16.86;76.21;99879.76;1708830;82;21065;-85
2022/09/14 06:44:03;;;;;;;2.90;1.60;;;;;;;16.90;75.94;99870.83;1719854;82;21069;-85
2022/09/14 06:46:31;;;;;;;4.47;1.32;;;;;;;16.93;75.57;99877.91;1712126;82;21749;-85
2022/09/14 06:49:09;;;;;;;4.05;0.98;;;;;;;16.94;75.13;99886.75;1716615;82;21621;-85
2022/09/14 06:51:38;;;;;;;2.77;1.30;;;;;;;16.92;75.09;99885.44;1708803;82;21088;-85
2022/09/14 06:54:05;;;;;;;1.22;0.88;;;;;;;16.91;75.03;99898.28;1708669;82;21095;-85
2022/09/14 06:56:34;;;;;;;1.50;0.80;;;;;;;16.89;74.99;99904.98;1713429;82;21101;-85
2022/09/14 06:59:01;;;;;;;1.82;0.80;;;;;;;16.88;75.03;99910.31;1712044;82;21740;-85
2022/09/14 07:01:28;;;;;;;2.50;1.15;;;;;;;16.82;75.01;99912.60;1712507;82;21115;-85
2022/09/14 07:03:56;;;;;;;1.17;0.72;;;;;;;16.74;74.96;99905.13;1719832;82;21598;-85
2022/09/14 07:06:25;;;;;;;1.95;0.88;;;;;;;16.73;75.17;99898.53;1709010;82;21421;-85
2022/09/14 07:08:52;;;;;;;1.95;1.00;;;;;;;16.76;75.30;99907.35;1712486;82;21026;-85
2022/09/14 07:11:21;;;;;;;1.47;0.90;;;;;;;16.80;75.28;99907.73;1720956;82;21749;-86
2022/09/14 07:13:48;;;;;;;2.52;0.90;;;;;;;16.89;75.43;99910.72;1712493;82;21052;-85
2022/09/14 07:16:15;;;;;;;1.52;0.75;;;;;;;17.00;75.47;99920.75;1708612;82;21073;-85
2022/09/14 07:18:43;;;;;;;2.15;0.90;;;;;;;17.04;75.24;99909.63;1708333;82;21613;-85
2022/09/14 07:21:15;;;;;;;2.90;1.15;;;;;;;17.25;75.27;99931.05;1708523;82;21783;-85
2022/09/14 07:23:43;;;;;;;1.90;1.12;;;;;;;17.36;75.03;99926.43;1709581;82;22543;-85
2022/09/14 07:26:13;;;;;;;3.10;1.00;;;;;;;17.53;74.92;99923.92;1709255;82;21531;-85
2022/09/14 07:28:40;;;;;;;2.05;0.85;;;;;;;17.68;74.65;99928.98;1697745;82;20992;-84
2022/09/14 07:31:21;;;;;;;4.15;1.22;;;;;;;17.79;74.36;99925.70;1716202;81;21086;-84
2022/09/14 07:33:48;;;;;;;3.25;1.10;;;;;;;17.81;73.99;99923.89;1697469;82;21546;-86
2022/09/14 07:36:14;;;;;;;2.25;0.80;;;;;;;17.82;73.88;99922.97;1677427;83;22273;-84
2022/09/14 07:38:41;;;;;;;2.65;0.90;;;;;;;17.75;73.42;99925.77;1721256;81;21141;-85
2022/09/14 07:41:08;;;;;;;1.05;0.70;;;;;;;17.61;73.42;99930.88;1690656;82;21036;-84
2022/09/14 07:43:35;;;;;;;3.50;0.93;;;;;;;17.55;73.47;99926.10;1697684;82;21110;-85
2022/09/14 07:46:03;;;;;;;1.92;0.98;;;;;;;17.44;73.37;99924.52;1713935;82;20992;-85
2022/09/14 07:48:31;;;;;;;4.37;1.57;;;;;;;17.39;73.29;99930.81;1705796;81;21860;-85
2022/09/14 07:51:04;;;;;;;3.98;1.20;;;;;;;17.45;73.47;99928.05;1690668;82;22385;-85
2022/09/14 07:53:31;;;;;;;4.70;1.40;;;;;;;17.64;73.52;99919.30;1708066;82;21088;-85
2022/09/14 07:55:59;;;;;;;2.92;1.32;;;;;;;17.88;73.31;99917.56;1712383;82;22010;-86
2022/09/14 07:58:27;;;;;;;4.15;1.40;;;;;;;18.13;72.86;99923.78;1714835;82;21103;-85
2022/09/14 08:01:11;;;;;;;4.47;1.45;;;;;;;18.31;72.45;99915.86;1716254;82;21776;-85
2022/09/14 08:03:36;;;;;;;3.80;1.40;;;;;;;18.49;72.05;99912.39;1708028;81;20996;-85
2022/09/14 08:06:05;;;;;;;4.35;1.92;;;;;;;18.60;71.53;99913.94;1708427;82;21061;-85
2022/09/14 08:08:35;;;;;;;6.25;1.72;;;;;;;18.74;71.25;99916.77;1708854;81;21104;-84
2022/09/14 08:11:11;;;;;;;4.90;1.27;;;;;;;18.93;71.07;99926.13;1707301;81;21092;-85
2022/09/14 08:13:40;;;;;;;4.87;1.50;;;;;;;18.96;70.26;99923.41;1709059;82;21761;-85
2022/09/14 08:16:07;;;;;;;6.50;1.42;;;;;;;18.96;70.16;99926.07;1707962;81;21590;-85
2022/09/14 08:18:39;;;;;;;4.83;1.70;;;;;;;19.09;70.20;99924.44;1707861;81;21064;-85
2022/09/14 08:21:14;;;;;;;4.47;1.55;;;;;;;19.30;69.75;99926.61;1707435;82;20993;-85
2022/09/14 08:23:41;;;;;;;4.50;1.57;;;;;;;19.39;69.45;99922.39;1708174;82;21562;-84
2022/09/14 08:26:12;;;;;;;4.10;1.62;;;;;;;19.47;69.05;99914.19;1707799;82;21630;-84
2022/09/14 08:28:39;;;;;;;4.30;1.30;;;;;;;19.46;68.35;99914.22;1698376;82;20986;-84
2022/09/14 08:31:07;;;;;;;4.72;2.10;;;;;;;19.40;68.45;99916.13;1708201;82;21625;-84
2022/09/14 08:33:37;;;;;;;8.00;2.87;;;;;;;19.33;68.05;99913.64;1728231;80;21061;-85
2022/09/14 08:36:05;;;;;;;5.78;2.25;;;;;;;19.18;67.63;99913.12;1759300;80;22198;-85
2022/09/14 08:38:32;;;;;;;5.62;1.67;;;;;;;18.93;67.47;99914.12;1733660;81;22121;-85
2022/09/14 08:41:02;;;;;;;5.20;1.90;;;;;;;18.88;67.64;99905.81;1748408;81;21035;-84
2022/09/14 08:43:29;;;;;;;3.25;1.25;;;;;;;18.94;67.88;99909.23;1753613;80;21035;-85
2022/09/14 08:46:01;;;;;;;5.30;1.77;;;;;;;18.95;67.74;99906.97;1754280;80;21545;-84
2022/09/14 08:48:36;;;;;;;5.50;2.42;;;;;;;18.87;67.38;99916.08;1754256;80;21107;-84
2022/09/14 08:51:04;;;;;;;3.70;1.80;;;;;;;18.78;67.36;99909.98;1727717;81;21751;-85
2022/09/14 08:53:31;;;;;;;7.42;2.27;;;;;;;18.75;67.28;99919.83;1764110;80;21048;-84
2022/09/14 08:56:09;;;;;;;7.55;1.37;;;;;;;18.86;67.50;99919.64;1763179;79;21946;-85
2022/09/14 08:58:59;;;;;;;3.37;1.82;;;;;;;19.04;67.54;99923.23;1764449;79;20965;-85
2022/09/14 09:01:35;;;;;;;4.80;1.45;;;;;;;19.10;67.06;99911.07;1764292;79;21077;-86
2022/09/14 09:04:22;;;;;;;1.82;0.90;;;;;;;19.19;66.97;99920.19;1736182;81;21758;-86
2022/09/14 09:07:16;;;;;;;4.37;1.30;;;;;;;19.25;66.91;99918.30;1722303;81;21129;-86
2022/09/14 09:09:46;;;;;;;5.70;1.30;;;;;;;19.32;66.41;99918.58;1763758;79;21559;-86
2022/09/14 09:12:19;;;;;;;3.98;1.27;;;;;;;19.33;66.28;99923.88;1764395;79;21143;-86
2022/09/14 09:14:51;;;;;;;3.58;1.00;;;;;;;19.42;66.28;99921.42;1764274;79;21152;-86
2022/09/14 09:17:40;;;;;;;3.80;0.80;;;;;;;19.52;65.79;99921.63;1763561;80;22859;-86
2022/09/14 09:20:12;;;;;;;2.20;1.07;;;;;;;19.55;65.65;99924.67;1742501;79;21040;-86
2022/09/14 09:22:55;;;;;;;3.12;1.30;;;;;;;19.60;65.50;99926.31;1763780;79;21554;-86
2022/09/14 09:25:26;;;;;;;2.23;1.63;;;;;;;19.57;65.32;99929.05;1763018;79;21049;-86
2022/09/14 09:28:01;;;;;;;2.10;1.17;;;;;;;19.52;65.04;99939.42;1760836;80;21046;-85
2022/09/14 09:30:30;;;;;;;2.40;0.98;;;;;;;19.52;65.04;99939.42;1738727;80;21049;-86
2022/09/14 09:32:58;;;;;;;4.58;0.95;;;;;;;19.54;65.05;99939.82;1737752;80;21098;-86
2022/09/14 09:35:26;;;;;;;2.47;1.00;;;;;;;19.59;64.94;99943.23;1708063;81;21568;-85
2022/09/14 09:37:52;;;;;;;4.12;1.40;;;;;;;19.60;64.71;99932.98;1690320;82;21069;-85
2022/09/14 09:40:24;;;;;;;2.62;1.32;;;;;;;19.74;64.87;99938.46;1710916;82;21143;-85
2022/09/14 09:43:07;;;;;;;3.33;1.35;;;;;;;20.25;64.58;99924.61;1717049;82;22760;-85
2022/09/14 09:46:02;;;;;;;2.30;1.35;;;;;;;20.25;64.58;99924.61;1715236;82;20995;-86
2022/09/14 09:48:40;;;;;;;3.15;1.42;;;;;;;20.39;63.80;99938.94;1743649;80;21464;-85
2022/09/14 09:51:10;;;;;;;3.50;1.50;;;;;;;20.36;62.98;99936.34;1694991;82;21514;-85
2022/09/14 09:53:54;;;;;;;1.87;1.32;;;;;;;20.24;62.88;99914.86;1712498;82;21037;-85
2022/09/14 09:56:27;;;;;;;1.85;1.20;;;;;;;20.24;62.88;99914.86;1720647;82;22677;-86
2022/09/14 09:58:54;;;;;;;3.80;0.93;;;;;;;20.40;62.86;99932.66;1714599;82;21546;-85
2022/09/14 10:01:33;;;;;;;2.20;1.47;;;;;;;20.50;62.66;99927.48;1710994;82;21060;-85
2022/09/14 10:04:18;;;;;;;2.47;1.60;;;;;;;20.59;62.31;99933.03;1709668;82;21056;-85
2022/09/14 10:06:49;;;;;;;1.37;0.82;;;;;;;20.52;61.94;99922.96;1702666;82;21185;-86
2022/09/14 10:09:19;;;;;;;2.80;1.00;;;;;;;20.38;61.77;99918.03;1711041;82;21771;-86
2022/09/14 10:12:00;;;;;;;2.47;1.00;;;;;;;20.17;61.66;99923.49;1715477;82;21061;-86
2022/09/14 10:14:35;;;;;;;4.47;1.30;;;;;;;19.93;61.74;99914.38;1713869;82;21159;-85
2022/09/14 10:17:09;;;;;;;4.50;1.02;;;;;;;19.74;62.00;99931.78;1686168;83;21097;-86
2022/09/14 10:19:36;;;;;;;2.20;1.00;;;;;;;19.63;62.39;99932.02;1711716;82;21129;-86
2022/09/14 10:22:16;;;;;;;5.08;1.17;;;;;;;19.63;62.51;99932.02;1716051;82;21658;-85
2022/09/14 10:24:53;;;;;;;4.20;2.90;;;;;;;19.71;62.49;99928.72;1714241;82;21084;-86
2022/09/14 10:27:43;;;;;;;4.62;1.50;;;;;;;19.75;62.37;99928.22;1717268;82;21084;-86
2022/09/14 10:30:16;;;;;;;3.33;1.82;;;;;;;19.68;61.88;99922.58;1711217;82;21080;-86
2022/09/14 10:33:00;;;;;;;7.25;1.60;;;;;;;19.64;62.03;99929.78;1710962;82;21367;-85
2022/09/14 10:35:33;;;;;;;;;;;;;;;19.86;62.38;99935.92;1741248;80;22168;-85
2022/09/14 10:38:23;;;;;;;4.37;1.17;;;;;;;20.20;62.13;99937.25;1747756;80;20212;-85
2022/09/14 10:40:56;;;;;;;4.97;1.32;;;;;;;20.49;61.85;99932.87;1764039;80;21130;-86
2022/09/14 10:43:56;;;;;;;8.43;1.45;;;;;;;20.61;61.40;99931.66;1763755;79;21099;-85
2022/09/14 10:46:29;;;;;;;6.03;1.35;;;;;;;20.74;61.52;99937.95;1764224;80;21114;-85
2022/09/14 10:49:11;;;;;;;6.92;2.02;;;;;;;20.84;61.15;99933.20;1766689;79;21751;-85
2022/09/14 10:51:43;;;;;;;3.65;1.07;;;;;;;20.81;60.86;99933.75;1766497;79;21095;-85
2022/09/14 10:54:53;;;;;;;4.30;1.25;;;;;;;20.74;60.48;99931.27;1766127;79;22102;-85
2022/09/14 10:58:00;;;;;;;4.25;1.32;;;;;;;20.68;60.51;99927.41;1766213;79;21095;-85
2022/09/14 11:00:26;;;;;;;5.53;1.65;;;;;;;20.65;60.41;99925.33;1764335;80;21047;-85
2022/09/14 11:03:28;;;;;;;4.65;1.77;;;;;;;20.64;60.37;99925.76;1760955;80;21733;-85
2022/09/14 11:06:40;;;;;;;3.30;1.12;;;;;;;20.63;60.15;99928.03;1753070;81;21131;-85
2022/09/14 11:09:17;;;;;;;5.22;1.40;;;;;;;20.60;59.96;99925.44;1792180;79;21103;-86
2022/09/14 11:12:20;;;;;;;4.83;1.20;;;;;;;20.59;60.04;99925.87;1730231;81;21101;-85
2022/09/14 11:15:01;;;;;;;6.97;3.20;;;;;;;20.64;60.16;99920.41;1734358;79;21485;-84
2022/09/14 11:17:52;;;;;;;2.83;1.65;;;;;;;20.57;59.71;99911.68;1766432;79;22572;-85
2022/09/14 11:20:27;;;;;;;5.67;2.00;;;;;;;20.54;59.99;99920.25;1762067;79;21553;-84
2022/09/14 11:23:31;;;;;;;6.28;2.50;;;;;;;20.65;59.58;99934.21;1767138;79;21564;-84
2022/09/14 11:26:08;;;;;;;3.17;1.57;;;;;;;20.78;59.07;99925.37;1767373;79;21013;-84
2022/09/14 11:28:54;;;;;;;4.28;1.50;;;;;;;20.94;58.93;99929.77;1740361;79;21088;-84
2022/09/14 11:31:50;;;;;;;5.17;1.70;;;;;;;21.16;58.98;99925.50;1766302;79;21756;-85
2022/09/14 11:34:25;;;;;;;4.17;1.87;;;;;;;21.39;58.62;99925.69;1761151;79;21049;-85
2022/09/14 11:37:16;;;;;;;4.08;1.10;;;;;;;21.57;58.43;99925.12;1717140;81;21068;-85
2022/09/14 11:39:55;;;;;;;2.77;1.45;;;;;;;21.67;58.18;99928.36;1749052;79;21091;-85
2022/09/14 11:42:38;;;;;;;6.20;2.33;;;;;;;21.71;57.95;99922.83;1736865;79;21076;-85
2022/09/14 11:45:19;;;;;;;3.37;1.47;;;;;;;21.82;57.33;99924.28;1739713;79;23109;-85
2022/09/14 11:47:51;;;;;;;2.12;1.20;;;;;;;21.78;57.23;99919.96;1754259;79;20996;-85
2022/09/14 11:50:24;;;;;;;1.35;0.82;;;;;;;21.81;57.00;99923.85;1733164;80;21561;-85
2022/09/14 11:53:11;;;;;;;1.67;0.82;;;;;;;21.63;56.96;99916.00;1766071;79;21075;-85
2022/09/14 11:55:42;;;;;;;1.50;0.80;;;;;;;21.62;56.88;99927.63;1757264;80;21071;-85
2022/09/14 11:58:21;;;;;;;3.33;0.80;;;;;;;21.55;56.66;99925.64;1757807;79;21696;-85
2022/09/14 12:01:00;;;;;;;1.80;0.90;;;;;;;21.57;56.87;99924.22;1750139;79;21049;-84
2022/09/14 12:03:58;;;;;;;3.95;1.05;;;;;;;21.71;56.99;99915.27;1752326;80;22262;-85
2022/09/14 12:06:36;;;;;;;2.47;1.00;;;;;;;21.89;56.89;99918.66;1749970;79;21491;-85